| time (UTC) | temp F | wind direction | speed MPH | gust MPH | rain 1hr in | rain 24hr in | rain mn in | humidity % | barometer mb |
| 20260504194546 | 68 | 272 | 8.0 | 18.0 | 0.00 | 0.00 | 0.00 | 24 | 1009.4 |
| 20260504194041 | 69 | 216 | 9.0 | 18.0 | 0.00 | 0.00 | 0.00 | 20 | 1009.3 |
| 20260504193541 | 70 | 211 | 7.0 | 18.0 | 0.00 | 0.00 | 0.00 | 20 | 1009.2 |
| 20260504193046 | 70 | 194 | 3.0 | 16.0 | 0.00 | 0.00 | 0.00 | 20 | 1009.2 |
| 20260504192540 | 70 | 269 | 6.0 | 16.0 | 0.00 | 0.00 | 0.00 | 20 | 1009.2 |
| 20260504192041 | 70 | 229 | 1.0 | 8.0 | 0.00 | 0.00 | 0.00 | 22 | 1009.1 |
| 20260504191549 | 69 | 235 | 1.0 | 11.0 | 0.00 | 0.00 | 0.00 | 20 | 1009.1 |
| 20260504191040 | 69 | 200 | 2.0 | 13.0 | 0.00 | 0.00 | 0.00 | 20 | 1009.2 |
| 20260504190541 | 69 | 277 | 3.0 | 13.0 | 0.00 | 0.00 | 0.00 | 21 | 1009.2 |
| 20260504190049 | 70 | 313 | 3.0 | 12.0 | 0.00 | 0.00 | 0.00 | 20 | 1009.2 |
| 20260504185541 | 69 | 331 | 5.0 | 14.0 | 0.00 | 0.00 | 0.00 | 20 | 1009.3 |
| 20260504185041 | 70 | 355 | 6.0 | 14.0 | 0.00 | 0.00 | 0.00 | 20 | 1009.2 |
| 20260504184555 | 70 | 336 | 3.0 | 12.0 | 0.00 | 0.00 | 0.00 | 20 | 1009.3 |
| 20260504184041 | 70 | 355 | 2.0 | 12.0 | 0.00 | 0.00 | 0.00 | 21 | 1009.4 |
| 20260504183541 | 70 | 347 | 4.0 | 13.0 | 0.00 | 0.00 | 0.00 | 22 | 1009.5 |
| 20260504183049 | 69 | 317 | 4.0 | 13.0 | 0.00 | 0.00 | 0.00 | 21 | 1009.6 |
| 20260504182540 | 69 | 303 | 5.0 | 11.0 | 0.00 | 0.00 | 0.00 | 22 | 1009.8 |
| 20260504182040 | 69 | 226 | 4.0 | 11.0 | 0.00 | 0.00 | 0.00 | 23 | 1009.8 |
| 20260504181553 | 69 | 277 | 4.0 | 16.0 | 0.00 | 0.00 | 0.00 | 23 | 1009.9 |
| 20260504181041 | 69 | 268 | 3.0 | 16.0 | 0.00 | 0.00 | 0.00 | 23 | 1010.1 |
| 20260504180544 | 69 | 221 | 7.0 | 14.0 | 0.00 | 0.00 | 0.00 | 22 | 1010.2 |
| 20260504180044 | 69 | 253 | 4.0 | 12.0 | 0.00 | 0.00 | 0.00 | 24 | 1010.4 |
| 20260504175540 | 68 | 254 | 3.0 | 13.0 | 0.00 | 0.00 | 0.00 | 24 | 1010.4 |
| 20260504175043 | 68 | 270 | 7.0 | 16.0 | 0.00 | 0.00 | 0.00 | 25 | 1010.5 |
| 20260504174549 | 68 | 312 | 7.0 | 16.0 | 0.00 | 0.00 | 0.00 | 25 | 1010.6 |
| 20260504174040 | 67 | 168 | 6.0 | 15.0 | 0.00 | 0.00 | 0.00 | 26 | 1010.7 |
| 20260504173539 | 66 | 326 | 8.0 | 15.0 | 0.00 | 0.00 | 0.00 | 27 | 1010.9 |
| 20260504173048 | 65 | 216 | 6.0 | 14.0 | 0.00 | 0.00 | 0.00 | 28 | 1010.8 |
| 20260504172540 | 64 | 309 | 6.0 | 13.0 | 0.00 | 0.00 | 0.00 | 28 | 1011.0 |
| 20260504172041 | 64 | 205 | 5.0 | 13.0 | 0.00 | 0.00 | 0.00 | 28 | 1011.1 |
| 20260504171547 | 63 | 267 | 6.0 | 14.0 | 0.00 | 0.00 | 0.00 | 28 | 1011.1 |
| 20260504171041 | 63 | 309 | 6.0 | 14.0 | 0.00 | 0.00 | 0.00 | 28 | 1011.1 |
| 20260504170541 | 62 | 267 | 5.0 | 14.0 | 0.00 | 0.00 | 0.00 | 28 | 1011.2 |
| 20260504151042 | 61 | 286 | 4.0 | 10.0 | 0.00 | 0.00 | 0.00 | 28 | 1011.3 |
| 20260504150540 | 61 | 196 | 4.0 | 10.0 | 0.00 | 0.00 | 0.00 | 27 | 1011.3 |
| 20260504141040 | 59 | 0 | 0.0 | 5.0 | 0.00 | 0.00 | 0.00 | 26 | 1011.3 |
| 20260504140543 | 58 | 242 | 2.0 | 5.0 | 0.00 | 0.00 | 0.00 | 26 | 1011.3 |
| 20260504130544 | 52 | 288 | 7.0 | 12.0 | 0.00 | 0.00 | 0.00 | 28 | 1011.2 |
| 20260504110544 | 48 | 318 | 2.0 | 5.0 | 0.00 | 0.00 | 0.00 | 33 | 1010.9 |
| 20260504100543 | 47 | 347 | 1.0 | 8.0 | 0.00 | 0.00 | 0.00 | 33 | 1011.1 |
| 20260504081552 | 48 | 275 | 4.0 | 10.0 | 0.00 | 0.00 | 0.00 | 33 | 1011.9 |
| 20260504081043 | 49 | 297 | 4.0 | 9.0 | 0.00 | 0.00 | 0.00 | 32 | 1012.1 |
| 20260504080543 | 49 | 279 | 3.0 | 8.0 | 0.00 | 0.00 | 0.00 | 32 | 1012.2 |
| 20260504050543 | 57 | 267 | 7.0 | 12.0 | 0.00 | 0.00 | 0.00 | 27 | 1012.8 |
| 20260504045542 | 57 | 276 | 7.0 | 11.0 | 0.00 | 0.00 | 0.00 | 26 | 1012.7 |
| 20260504045043 | 58 | 331 | 6.0 | 10.0 | 0.00 | 0.00 | 0.00 | 27 | 1012.7 |
| 20260504044554 | 58 | 291 | 7.0 | 10.0 | 0.00 | 0.00 | 0.00 | 26 | 1012.7 |
| 20260504044043 | 58 | 300 | 5.0 | 11.0 | 0.00 | 0.00 | 0.00 | 26 | 1012.7 |
| 20260504043544 | 58 | 290 | 6.0 | 12.0 | 0.00 | 0.00 | 0.00 | 27 | 1012.7 |
| 20260504043057 | 58 | 297 | 4.0 | 12.0 | 0.00 | 0.00 | 0.00 | 27 | 1012.8 |
| 20260504042544 | 59 | 279 | 6.0 | 12.0 | 0.00 | 0.00 | 0.00 | 26 | 1012.8 |
| 20260504042042 | 59 | 263 | 5.0 | 11.0 | 0.00 | 0.00 | 0.00 | 26 | 1012.9 |
| 20260504041552 | 60 | 294 | 5.0 | 11.0 | 0.00 | 0.00 | 0.00 | 26 | 1012.9 |
| 20260504041042 | 62 | 286 | 5.0 | 15.0 | 0.00 | 0.00 | 0.00 | 24 | 1012.9 |
| 20260504040542 | 62 | 302 | 6.0 | 15.0 | 0.00 | 0.00 | 0.00 | 24 | 1013.0 |
| 20260504040055 | 62 | 285 | 5.0 | 18.0 | 0.00 | 0.00 | 0.00 | 24 | 1013.1 |
| 20260504035543 | 62 | 311 | 6.0 | 18.0 | 0.00 | 0.00 | 0.00 | 24 | 1013.1 |
| 20260504035042 | 62 | 286 | 8.0 | 18.0 | 0.00 | 0.00 | 0.00 | 24 | 1013.2 |
| 20260504034552 | 62 | 288 | 7.0 | 14.0 | 0.00 | 0.00 | 0.00 | 24 | 1013.2 |
| 20260504034042 | 62 | 263 | 7.0 | 14.0 | 0.00 | 0.00 | 0.00 | 25 | 1013.3 |
| 20260504033545 | 62 | 275 | 8.0 | 14.0 | 0.00 | 0.00 | 0.00 | 25 | 1013.3 |
| 20260504033051 | 62 | 269 | 5.0 | 12.0 | 0.00 | 0.00 | 0.00 | 25 | 1013.2 |
| 20260504032540 | 62 | 273 | 5.0 | 14.0 | 0.00 | 0.00 | 0.00 | 25 | 1013.2 |
| 20260504032046 | 62 | 245 | 6.0 | 14.0 | 0.00 | 0.00 | 0.00 | 24 | 1013.2 |
| 20260504031553 | 62 | 298 | 6.0 | 14.0 | 0.00 | 0.00 | 0.00 | 25 | 1013.2 |
| 20260504031042 | 62 | 268 | 7.0 | 13.0 | 0.00 | 0.00 | 0.00 | 25 | 1013.2 |
| 20260504030542 | 62 | 254 | 6.0 | 13.0 | 0.00 | 0.00 | 0.00 | 25 | 1013.2 |
| 20260504030050 | 63 | 292 | 6.0 | 16.0 | 0.00 | 0.00 | 0.00 | 25 | 1013.2 |
| 20260504025539 | 63 | 258 | 7.0 | 16.0 | 0.00 | 0.00 | 0.00 | 24 | 1013.2 |
| 20260504025044 | 63 | 262 | 6.0 | 13.0 | 0.00 | 0.00 | 0.00 | 24 | 1013.1 |
| 20260504024556 | 63 | 267 | 5.0 | 12.0 | 0.00 | 0.00 | 0.00 | 24 | 1013.1 |
| 20260504024044 | 63 | 262 | 4.0 | 14.0 | 0.00 | 0.00 | 0.00 | 23 | 1013.1 |
| 20260504023542 | 63 | 235 | 5.0 | 14.0 | 0.00 | 0.00 | 0.00 | 23 | 1013.1 |
| 20260504023052 | 63 | 217 | 4.0 | 10.0 | 0.00 | 0.00 | 0.00 | 23 | 1013.1 |
| 20260504022541 | 63 | 236 | 3.0 | 8.0 | 0.00 | 0.00 | 0.00 | 23 | 1013.1 |
| 20260504022040 | 63 | 265 | 2.0 | 8.0 | 0.00 | 0.00 | 0.00 | 23 | 1013.1 |
| 20260504021549 | 63 | 298 | 3.0 | 8.0 | 0.00 | 0.00 | 0.00 | 23 | 1013.1 |
| 20260504021042 | 63 | 229 | 2.0 | 7.0 | 0.00 | 0.00 | 0.00 | 23 | 1013.0 |
| 20260504020543 | 64 | 259 | 3.0 | 7.0 | 0.00 | 0.00 | 0.00 | 22 | 1013.0 |
| 20260504020127 | 64 | 236 | 1.0 | 9.0 | 0.00 | 0.00 | 0.00 | 22 | 1012.9 |
| 20260504015541 | 64 | 0 | 1.0 | 9.0 | 0.00 | 0.00 | 0.00 | 21 | 1012.9 |
| 20260504015044 | 64 | 279 | 1.0 | 9.0 | 0.00 | 0.00 | 0.00 | 21 | 1012.7 |
| 20260504014605 | 64 | 0 | 0.0 | 3.0 | 0.00 | 0.00 | 0.00 | 21 | 1012.7 |
| 20260504014041 | 65 | 0 | 0.0 | 8.0 | 0.00 | 0.00 | 0.00 | 21 | 1012.7 |
| 20260504013541 | 65 | 294 | 0.0 | 8.0 | 0.00 | 0.00 | 0.00 | 21 | 1012.6 |
| 20260504013110 | 65 | 325 | 0.0 | 4.0 | 0.00 | 0.00 | 0.00 | 20 | 1012.5 |
| 20260504012541 | 65 | 262 | 0.0 | 8.0 | 0.00 | 0.00 | 0.00 | 20 | 1012.4 |
| 20260504012041 | 65 | 287 | 1.0 | 8.0 | 0.00 | 0.00 | 0.00 | 21 | 1012.4 |
| 20260504011551 | 66 | 286 | 3.0 | 10.0 | 0.00 | 0.00 | 0.00 | 21 | 1012.4 |
| 20260504011040 | 66 | 262 | 4.0 | 10.0 | 0.00 | 0.00 | 0.00 | 21 | 1012.4 |
| 20260504010540 | 66 | 267 | 2.0 | 9.0 | 0.00 | 0.00 | 0.00 | 21 | 1012.5 |
| 20260504010051 | 66 | 277 | 3.0 | 14.0 | 0.00 | 0.00 | 0.00 | 21 | 1012.6 |
| 20260504005541 | 66 | 310 | 4.0 | 18.0 | 0.00 | 0.00 | 0.00 | 21 | 1012.5 |
| 20260504005041 | 66 | 298 | 6.0 | 18.0 | 0.00 | 0.00 | 0.00 | 21 | 1012.7 |
| 20260504004618 | 66 | 257 | 7.0 | 17.0 | 0.00 | 0.00 | 0.00 | 21 | 1012.9 |
| 20260504004041 | 67 | 288 | 6.0 | 17.0 | 0.00 | 0.00 | 0.00 | 21 | 1013.1 |
| 20260504003541 | 67 | 274 | 5.0 | 17.0 | 0.00 | 0.00 | 0.00 | 21 | 1013.1 |
| 20260504003054 | 67 | 315 | 6.0 | 16.0 | 0.00 | 0.00 | 0.00 | 21 | 1013.1 |
| 20260504002541 | 67 | 294 | 5.0 | 16.0 | 0.00 | 0.00 | 0.00 | 21 | 1013.4 |
| 20260504002041 | 67 | 286 | 7.0 | 16.0 | 0.00 | 0.00 | 0.00 | 20 | 1013.1 |
| 20260504001618 | 67 | 307 | 4.0 | 10.0 | 0.00 | 0.00 | 0.00 | 20 | 1013.5 |
| 20260504001042 | 67 | 0 | 1.0 | 8.0 | 0.00 | 0.00 | 0.00 | 21 | 1013.3 |
| 20260504000540 | 67 | 229 | 2.0 | 22.0 | 0.00 | 0.00 | 0.00 | 21 | 1013.4 |
| 20260503235541 | 67 | 273 | 5.0 | 14.0 | 0.00 | 0.00 | 0.00 | 20 | 1013.5 |
| 20260503235041 | 67 | 309 | 1.0 | 11.0 | 0.00 | 0.00 | 0.00 | 21 | 1013.5 |
| 20260503234551 | 67 | 225 | 1.0 | 13.0 | 0.00 | 0.00 | 0.00 | 21 | 1013.5 |
| 20260503234041 | 67 | 340 | 4.0 | 13.0 | 0.00 | 0.00 | 0.00 | 21 | 1013.7 |
| 20260503233540 | 67 | 334 | 2.0 | 15.0 | 0.00 | 0.00 | 0.00 | 22 | 1013.7 |
| 20260503233055 | 67 | 0 | 6.0 | 15.0 | 0.00 | 0.00 | 0.00 | 21 | 1013.7 |
| 20260503232542 | 67 | 321 | 4.0 | 12.0 | 0.00 | 0.00 | 0.00 | 20 | 1013.8 |
| 20260503232042 | 68 | 344 | 6.0 | 12.0 | 0.00 | 0.00 | 0.00 | 20 | 1013.5 |
| 20260503231552 | 68 | 319 | 5.0 | 13.0 | 0.00 | 0.00 | 0.00 | 20 | 1013.5 |
| 20260503231043 | 68 | 300 | 6.0 | 13.0 | 0.00 | 0.00 | 0.00 | 20 | 1013.3 |
| 20260503230542 | 69 | 331 | 4.0 | 10.0 | 0.00 | 0.00 | 0.00 | 20 | 1013.3 |
| 20260503230111 | 69 | 344 | 3.0 | 13.0 | 0.00 | 0.00 | 0.00 | 19 | 1013.4 |
| 20260503225542 | 70 | 335 | 6.0 | 14.0 | 0.00 | 0.00 | 0.00 | 19 | 1013.5 |
| 20260503225042 | 69 | 339 | 6.0 | 14.0 | 0.00 | 0.00 | 0.00 | 19 | 1013.4 |
| 20260503224553 | 70 | 330 | 4.0 | 12.0 | 0.00 | 0.00 | 0.00 | 19 | 1013.5 |
| 20260503224042 | 69 | 360 | 7.0 | 18.0 | 0.00 | 0.00 | 0.00 | 21 | 1013.3 |
| 20260503223544 | 69 | 15 | 4.0 | 19.0 | 0.00 | 0.00 | 0.00 | 20 | 1013.3 |
| 20260503223056 | 69 | 350 | 9.0 | 23.0 | 0.00 | 0.00 | 0.00 | 19 | 1013.4 |
| 20260503222542 | 69 | 325 | 9.0 | 26.0 | 0.00 | 0.00 | 0.00 | 20 | 1013.3 |
| 20260503222042 | 68 | 339 | 13.0 | 26.0 | 0.00 | 0.00 | 0.00 | 19 | 1013.4 |
| 20260503221545 | 68 | 334 | 9.0 | 21.0 | 0.00 | 0.00 | 0.00 | 20 | 1013.5 |
| 20260503221043 | 69 | 294 | 9.0 | 21.0 | 0.00 | 0.00 | 0.00 | 19 | 1013.4 |
| 20260503220542 | 70 | 333 | 6.0 | 16.0 | 0.00 | 0.00 | 0.00 | 18 | 1013.4 |
| 20260503220054 | 70 | 342 | 9.0 | 14.0 | 0.00 | 0.00 | 0.00 | 17 | 1013.6 |
| 20260503215542 | 70 | 345 | 4.0 | 9.0 | 0.00 | 0.00 | 0.00 | 17 | 1013.5 |
| 20260503215039 | 70 | 0 | 3.0 | 12.0 | 0.00 | 0.00 | 0.00 | 17 | 1013.6 |
| 20260503214557 | 69 | 295 | 3.0 | 18.0 | 0.00 | 0.00 | 0.00 | 17 | 1013.8 |
| 20260503214042 | 69 | 311 | 8.0 | 18.0 | 0.00 | 0.00 | 0.00 | 16 | 1014.0 |
| 20260503213544 | 70 | 213 | 5.0 | 16.0 | 0.00 | 0.00 | 0.00 | 16 | 1014.2 |
| 20260503213052 | 70 | 271 | 6.0 | 14.0 | 0.00 | 0.00 | 0.00 | 16 | 1014.2 |
| 20260503212539 | 71 | 290 | 5.0 | 14.0 | 0.00 | 0.00 | 0.00 | 15 | 1014.1 |
| 20260503212041 | 71 | 263 | 3.0 | 11.0 | 0.00 | 0.00 | 0.00 | 15 | 1014.0 |
| 20260503211551 | 71 | 225 | 4.0 | 14.0 | 0.00 | 0.00 | 0.00 | 15 | 1013.9 |
| 20260503211042 | 71 | 270 | 2.0 | 14.0 | 0.00 | 0.00 | 0.00 | 16 | 1013.9 |
| 20260503210539 | 72 | 286 | 5.0 | 14.0 | 0.00 | 0.00 | 0.00 | 15 | 1014.1 |
| 20260503210048 | 71 | 253 | 5.0 | 12.0 | 0.00 | 0.00 | 0.00 | 16 | 1014.0 |
| 20260503205542 | 72 | 231 | 3.0 | 12.0 | 0.00 | 0.00 | 0.00 | 15 | 1014.2 |
| 20260503205042 | 71 | 219 | 3.0 | 12.0 | 0.00 | 0.00 | 0.00 | 15 | 1014.2 |
| 20260503204551 | 72 | 292 | 3.0 | 18.0 | 0.00 | 0.00 | 0.00 | 13 | 1014.4 |
| 20260503204039 | 72 | 263 | 7.0 | 18.0 | 0.00 | 0.00 | 0.00 | 13 | 1014.4 |
| 20260503203539 | 72 | 173 | 2.0 | 15.0 | 0.00 | 0.00 | 0.00 | 14 | 1014.3 |
| 20260503203105 | 74 | 298 | 4.0 | 15.0 | 0.00 | 0.00 | 0.00 | 13 | 1014.3 |
| 20260503202540 | 72 | 192 | 4.0 | 15.0 | 0.00 | 0.00 | 0.00 | 14 | 1014.5 |
| 20260503202042 | 71 | 256 | 7.0 | 14.0 | 0.00 | 0.00 | 0.00 | 14 | 1014.5 |
| 20260503201549 | 72 | 171 | 4.0 | 11.0 | 0.00 | 0.00 | 0.00 | 14 | 1014.6 |
| 20260503201041 | 71 | 58 | 2.0 | 9.0 | 0.00 | 0.00 | 0.00 | 14 | 1014.6 |
| 20260503200544 | 72 | 59 | 1.0 | 9.0 | 0.00 | 0.00 | 0.00 | 14 | 1014.6 |
| 20260503200053 | 71 | 0 | 3.0 | 9.0 | 0.00 | 0.00 | 0.00 | 17 | 1014.7 |
| 20260503195541 | 71 | 63 | 4.0 | 11.0 | 0.00 | 0.00 | 0.00 | 15 | 1014.6 |
| 20260503195042 | 70 | 33 | 2.0 | 11.0 | 0.00 | 0.00 | 0.00 | 15 | 1014.6 |